Interlaken, Switzerland

12:25 AM CEST on August 31, 2014 (GMT +0200)
Iseltwald Oberdorf | Change Station
CLOSE
Current Station
Personal Weather Station
Location: Iseltwald, BERN
Elevation: 2661 ft
Nearby Weather Stations

Elev 2661 ft 46.71 °N, 7.97 °E | Updated 7 minutes ago

Clear
Clear
59.4 °F
Feels Like 59.4 °F
N
0.7
Wind Variable Wind from South
Gusts 1.6 mph

Today
High -- | Low -- °F
--% Chance of Precip.
Yesterday
High -- | Low -- °F
Precip. -- in
6:46 AM 8:10 PM
Waxing Crescent, 25% visible
Pressure 30.09 in
Visibility 6.2 miles
Clouds
Dew Point 57 °F
Humidity 91%
Rainfall 0.00 in
Snow Depth Not available.
UV Not available.
Pollen Not available.
Air Quality Not available.
Flu Activity Not available.
METAR LSZB 302220Z AUTO VRB01KT 9999 NSC 14/13 Q1019

More Conditions Fewer Conditions

Pressure 30.09 in
Visibility 6.2 miles
Clouds
Dew Point 57 °F
Humidity 91%
Rainfall 0.00 in
Snow Depth Not available.
UV Not available.
Pollen Not available.
Air Quality Not available.
Flu Activity Not available.
METAR LSZB 302220Z AUTO VRB01KT 9999 NSC 14/13 Q1019

More Conditions Fewer Conditions

10-Day Weather Forecast

Almanac

Astronomy

Aug. 31, 2014 Rise Set
Actual Time 6:46 AM CEST 8:10 PM CEST
Civil Twilight 6:15 AM CEST 8:41 PM CEST
Nautical Twilight 5:37 AM CEST 9:19 PM CEST
Astronomical Twilight 4:56 AM CEST 9:59 PM CEST
Moon 12:38 PM CEST (8/31) 10:51 PM CEST (8/31)
Length of Visible Light 14h 26m
Length of Day
13h 23m
Tomorrow will be 3m 11s shorter.
Waxing Crescent, 25% of the Moon is Illuminated
Aug 30
Waxing Crescent
Sep 2
First Quarter
Sep 8
Full
Sep 15
Last Quarter
Sep 24
New

Yesterday's Extremes

Country Highs Country Lows

Community

WunderPhotos

Upload Photos

1,748,657 photos uploaded!

WunderBlogs® & News

Nearby

Snow Depth

Not available.

Earthquake Activity

City Distance Mag. Time & Date
No recent earthquake activity has been reported nearby.
Minimum magnitude displayed is 2.5.

Coastal Water Temperatures

Place Temperature
No Stations Reporting

Nearby Weather Stations